Duluth, MN (55811)

11:06 AM CDT on June 25, 2017 (GMT -0500)
Miller Hill Subaru | | Change Station

Elev 1332 ft 46.82 °N, 92.18 °W | Updated 4 minutes ago

Light Rain
Light Rain
52.3 °F
Feels Like 52.3 °F
N
12.0
Wind Variable Wind from West
Gusts 19.0 mph

Today
High -- | Low -- °F
--% Chance of Precip.
Yesterday
High -- | Low -- °F
Precip. -- in
Pressure 30.08 in
Visibility 10.0 miles
Clouds Few 1300 ft
Mostly Cloudy 3100 ft
Overcast 3800 ft
Dew Point 50 °F
Humidity 90%
Rainfall 0.06 in
Snow Depth Not available.
5:15 AM 9:07 PM
Waxing Crescent, 4% visible
METAR KDLH 251555Z 32016G24KT 10SM -RA FEW013 BKN031 OVC038 11/10 A3005 RMK AO2 SLP184 P0000 T01060100
Pressure 30.08 in
Visibility 10.0 miles
Clouds Few 1300 ft
Mostly Cloudy 3100 ft
Overcast 3800 ft
Dew Point 50 °F
Humidity 90%
Rainfall 0.06 in
Snow Depth Not available.
5:15 AM 9:07 PM
Waxing Crescent, 4% visible
METAR KDLH 251555Z 32016G24KT 10SM -RA FEW013 BKN031 OVC038 11/10 A3005 RMK AO2 SLP184 P0000 T01060100

Get Severe Weather Alerts

Thanks for signing up!

Be on the lookout for a verification email in your inbox.

You'll start receiving the daily forecast at 6 AM.

×

10-Day Weather Forecast

Almanac

Astronomy

Jun. 25, 2017 Rise Set
Actual Time
Civil Twilight
Nautical Twilight
Astronomical Twilight
Moon
Length of Visible Light
Length of Day
Tomorrow will be .
, % of the Moon is Illuminated

Today's Extremes

State Highs State Lows

Community

WunderPhotos

Category 6

Welcome to Category 6. This is the collective home for Weather Underground's featured writeups by Dr. Jeff Masters (right), Bob Henson (left), Chris Burt, and other regular contributors.

Nearby

Air Quality

  Air Quality AQ Index Pollutant
Not available.

Snow Depth

Station Depth Elevation

Earthquake Activity

City Distance Mag. Time & Date
Minimum magnitude displayed is 2.5.

Coastal Water Temperatures

Place Temperature

Stations

Nearby Weather Stations

Station Location Temp. Windchill Dew Point Humidity Wind Precip. Elev Updated Type
                   

Watches & Warnings

There are currently no watches in effect.